Time;durP1;ratioP1;P1;durP2;ratioP2;P2;SDS_P1;SDS_P2;PMS_P1;PMS_P2;Temp;Humidity;BMP_temperature;BMP_pressure;BME280_temperature;BME280_humidity;BME280_pressure;Samples;Min_cycle;Max_cycle;Signal;HPM_P1;HPM_P2
2023/03/14 00:00:15;;;;;;;;;;;;;;;23.83;45.08;97090.27;598249;237;67222;-64
2023/03/14 00:02:42;;;;;;;;;;;;;;;23.82;44.72;97089.47;598313;237;67136;-64
2023/03/14 00:05:10;;;;;;;;;;;;;;;23.81;45.88;97090.54;598269;237;65119;-64
2023/03/14 00:07:39;;;;;;;;;;;;;;;23.82;42.89;97096.73;598274;237;67401;-64
2023/03/14 00:10:08;;;;;;;;;;;;;;;23.81;43.87;97105.84;598296;237;66883;-64
2023/03/14 00:12:35;;;;;;;;;;;;;;;23.80;44.39;97104.27;598231;237;65150;-64
2023/03/14 00:15:06;;;;;;;;;;;;;;;23.80;45.01;97098.89;598306;237;66992;-64
2023/03/14 00:17:34;;;;;;;;;;;;;;;23.80;44.80;97106.95;598240;237;67433;-64
2023/03/14 00:20:08;;;;;;;;;;;;;;;23.79;46.28;97108.02;598251;237;65190;-64
2023/03/14 00:22:33;;;;;;;;;;;;;;;23.77;42.81;97097.58;598061;237;67362;-65
2023/03/14 00:25:00;;;;;;;;;;;;;;;23.78;42.30;97103.74;598200;237;67054;-64
2023/03/14 00:27:27;;;;;;;;;;;;;;;23.77;43.59;97099.47;598322;237;65216;-65
2023/03/14 00:29:55;;;;;;;;;;;;;;;23.77;46.52;97094.11;598256;237;67263;-65
2023/03/14 00:32:23;;;;;;;;;;;;;;;23.76;46.82;97089.80;598260;237;67156;-65
2023/03/14 00:34:50;;;;;;;;;;;;;;;23.75;45.53;97093.59;598290;237;64865;-65
2023/03/14 00:37:18;;;;;;;;;;;;;;;23.74;45.60;97086.63;598218;237;64456;-65
2023/03/14 00:39:46;;;;;;;;;;;;;;;23.73;46.26;97082.33;598225;237;64964;-65
2023/03/14 00:42:13;;;;;;;;;;;;;;;23.73;45.21;97076.97;598279;237;65068;-60
2023/03/14 00:44:41;;;;;;;;;;;;;;;23.73;46.26;97074.28;598256;237;65008;-60
2023/03/14 00:47:08;;;;;;;;;;;;;;;23.73;47.14;97068.92;598247;237;66941;-60
2023/03/14 00:49:36;;;;;;;;;;;;;;;23.70;45.76;97063.00;598257;237;65177;-60
2023/03/14 00:52:03;;;;;;;;;;;;;;;23.71;46.57;97066.54;598243;237;67176;-60
2023/03/14 00:54:30;;;;;;;;;;;;;;;23.69;44.42;97065.98;598299;237;67807;-60
2023/03/14 00:56:58;;;;;;;;;;;;;;;23.69;46.74;97065.98;598257;237;64900;-60
2023/03/14 00:59:26;;;;;;;;;;;;;;;23.69;46.18;97056.05;598262;237;64581;-60
2023/03/14 01:01:53;;;;;;;;;;;;;;;23.68;46.41;97059.83;598257;237;67071;-60
2023/03/14 01:04:21;;;;;;;;;;;;;;;23.67;44.56;97052.05;598268;237;63008;-60
2023/03/14 01:06:48;;;;;;;;;;;;;;;23.67;46.71;97049.37;598266;237;67255;-60
2023/03/14 01:09:17;;;;;;;;;;;;;;;23.66;46.24;97045.10;598296;237;67126;-60
2023/03/14 01:11:46;;;;;;;;;;;;;;;23.66;45.37;97039.73;598287;237;65038;-60
2023/03/14 01:14:14;;;;;;;;;;;;;;;23.65;45.69;97038.94;598270;237;67317;-60
2023/03/14 01:16:42;;;;;;;;;;;;;;;23.65;45.87;97041.63;598292;237;67069;-60
2023/03/14 01:19:09;;;;;;;;;;;;;;;23.64;47.91;97025.80;598307;237;65047;-60
2023/03/14 01:21:37;;;;;;;;;;;;;;;23.63;47.74;97026.90;598277;237;66778;-62
2023/03/14 01:24:06;;;;;;;;;;;;;;;23.62;46.37;97026.08;598287;237;64676;-60
2023/03/14 01:26:34;;;;;;;;;;;;;;;23.61;46.39;97019.13;598276;237;65130;-60
2023/03/14 01:29:02;;;;;;;;;;;;;;;23.61;43.21;97011.08;598289;237;65092;-60
2023/03/14 01:31:30;;;;;;;;;;;;;;;23.63;48.34;97013.48;592968;237;66863;-60
2023/03/14 01:33:58;;;;;;;;;;;;;;;23.60;44.26;97008.67;598247;237;62754;-60
2023/03/14 01:36:25;;;;;;;;;;;;;;;23.60;45.60;96995.25;598248;237;67120;-65
2023/03/14 01:38:53;;;;;;;;;;;;;;;23.58;46.34;96992.88;598303;237;64531;-65
2023/03/14 01:41:22;;;;;;;;;;;;;;;23.58;43.55;96986.72;598283;237;65113;-65
2023/03/14 01:43:51;;;;;;;;;;;;;;;23.57;44.37;96988.61;598262;237;64585;-64
2023/03/14 01:46:20;;;;;;;;;;;;;;;23.57;44.95;96988.61;598293;237;67081;-64
2023/03/14 01:48:52;;;;;;;;;;;;;;;23.56;43.02;96978.95;598283;237;65081;-64
2023/03/14 01:51:24;;;;;;;;;;;;;;;23.56;44.96;96980.84;598274;237;67842;-64
2023/03/14 01:53:53;;;;;;;;;;;;;;;23.56;46.65;96988.89;598004;237;66918;-64
2023/03/14 01:56:21;;;;;;;;;;;;;;;23.54;47.02;96994.52;598216;237;63807;-64
2023/03/14 01:58:49;;;;;;;;;;;;;;;23.54;46.56;96993.73;598306;237;67488;-64
2023/03/14 02:01:19;;;;;;;;;;;;;;;23.53;45.38;97000.98;598276;237;67353;-63
2023/03/14 02:03:48;;;;;;;;;;;;;;;23.53;46.07;97000.98;598252;237;65864;-64
2023/03/14 02:06:17;;;;;;;;;;;;;;;23.52;45.68;97001.27;598217;237;67409;-64
2023/03/14 02:08:49;;;;;;;;;;;;;;;23.51;43.79;97000.47;598286;237;64714;-65
2023/03/14 02:11:17;;;;;;;;;;;;;;;23.51;45.84;96997.78;598324;237;43299;-65
2023/03/14 02:14:05;;;;;;;;;;;;;;;23.51;47.04;97005.04;598285;237;44472;-64
2023/03/14 02:16:37;;;;;;;;;;;;;;;23.50;47.85;97004.25;590719;237;47029;-64
2023/03/14 02:19:08;;;;;;;;;;;;;;;23.50;48.33;96998.88;597185;237;45000;-64
2023/03/14 02:21:48;;;;;;;;;;;;;;;23.47;46.82;97000.25;597866;237;49421;-64
2023/03/14 02:24:19;;;;;;;;;;;;;;;23.47;46.17;97002.14;598016;237;67440;-64
2023/03/14 02:27:05;;;;;;;;;;;;;;;23.47;44.91;97010.19;598042;237;42499;-64
2023/03/14 02:29:34;;;;;;;;;;;;;;;23.46;44.31;97003.21;598282;237;67298;-64
2023/03/14 02:32:03;;;;;;;;;;;;;;;23.45;46.13;97009.67;598311;237;66837;-64
2023/03/14 02:34:31;;;;;;;;;;;;;;;23.44;46.56;97006.20;598275;237;63825;-64
2023/03/14 02:36:59;;;;;;;;;;;;;;;23.44;44.10;97003.52;598256;237;67222;-64
2023/03/14 02:39:34;;;;;;;;;;;;;;;23.43;44.69;97007.27;598318;237;64977;-64
2023/03/14 02:42:02;;;;;;;;;;;;;;;23.43;46.06;97006.47;598234;237;65175;-64
2023/03/14 02:44:29;;;;;;;;;;;;;;;23.42;45.65;97004.88;598327;237;64292;-64
2023/03/14 02:46:57;;;;;;;;;;;;;;;23.41;44.00;97006.77;598251;237;67289;-64
2023/03/14 02:49:27;;;;;;;;;;;;;;;23.41;43.58;97006.77;598308;237;65764;-64
2023/03/14 02:51:54;;;;;;;;;;;;;;;23.42;46.49;97008.36;598304;237;66813;-64
2023/03/14 02:54:22;;;;;;;;;;;;;;;23.41;45.95;97005.98;598302;237;67068;-64
2023/03/14 02:56:50;;;;;;;;;;;;;;;23.41;45.92;97005.98;598345;237;63556;-64
2023/03/14 02:59:17;;;;;;;;;;;;;;;23.39;45.10;96997.41;598312;237;64612;-64
2023/03/14 03:01:46;;;;;;;;;;;;;;;23.40;45.37;97001.68;598234;237;44794;-64
2023/03/14 03:04:14;;;;;;;;;;;;;;;23.40;47.14;97004.36;598336;237;65050;-64
2023/03/14 03:06:42;;;;;;;;;;;;;;;23.38;42.84;96996.63;598317;237;67007;-64
2023/03/14 03:09:09;;;;;;;;;;;;;;;23.38;45.65;97001.16;598326;237;64980;-64
2023/03/14 03:11:37;;;;;;;;;;;;;;;23.38;45.87;97003.84;598265;237;62648;-64
2023/03/14 03:14:05;;;;;;;;;;;;;;;23.38;46.65;97009.20;598307;237;67900;-64
2023/03/14 03:16:32;;;;;;;;;;;;;;;23.36;43.10;97003.36;598320;237;64837;-64
2023/03/14 03:19:00;;;;;;;;;;;;;;;23.36;44.11;97009.52;598302;237;65640;-64
2023/03/14 03:21:28;;;;;;;;;;;;;;;23.36;44.96;97008.72;598326;237;67046;-64
2023/03/14 03:23:55;;;;;;;;;;;;;;;23.35;44.61;96999.06;598299;237;67013;-64
2023/03/14 03:26:23;;;;;;;;;;;;;;;23.34;45.96;96989.42;598282;237;64890;-64
2023/03/14 03:28:52;;;;;;;;;;;;;;;23.33;45.29;96996.68;598328;237;67195;-64
2023/03/14 03:31:20;;;;;;;;;;;;;;;23.33;43.23;96987.84;598159;237;67454;-64
2023/03/14 03:33:48;;;;;;;;;;;;;;;23.32;43.98;96980.86;598307;237;62812;-64
2023/03/14 03:36:15;;;;;;;;;;;;;;;23.32;47.75;96976.30;598279;237;65993;-64
2023/03/14 03:38:43;;;;;;;;;;;;;;;23.31;42.63;96972.02;598286;237;67099;-64
2023/03/14 03:41:11;;;;;;;;;;;;;;;23.29;42.86;96971.51;598301;237;63513;-64
2023/03/14 03:43:39;;;;;;;;;;;;;;;23.30;46.19;96965.08;598305;237;67905;-64
2023/03/14 03:46:07;;;;;;;;;;;;;;;23.28;45.35;96961.09;598290;237;65725;-64
2023/03/14 03:48:35;;;;;;;;;;;;;;;23.29;46.34;96965.35;598320;237;65098;-64
2023/03/14 03:51:05;;;;;;;;;;;;;;;23.28;44.27;96958.41;598326;237;67246;-64
2023/03/14 03:53:32;;;;;;;;;;;;;;;23.27;43.88;96954.90;598310;237;67029;-64
2023/03/14 03:56:00;;;;;;;;;;;;;;;23.25;44.67;96960.56;598323;237;65909;-64
2023/03/14 03:58:28;;;;;;;;;;;;;;;23.26;44.33;96956.79;598328;237;64626;-64
2023/03/14 04:00:56;;;;;;;;;;;;;;;23.26;46.03;96954.11;598288;237;67379;-64
2023/03/14 04:03:24;;;;;;;;;;;;;;;23.25;44.02;96947.16;598332;237;65803;-64
2023/03/14 04:06:01;;;;;;;;;;;;;;;23.25;47.36;96949.84;598332;237;67014;-64
2023/03/14 04:08:29;;;;;;;;;;;;;;;23.24;46.36;96947.44;598318;237;66936;-65
2023/03/14 04:10:59;;;;;;;;;;;;;;;23.24;47.61;96944.75;598319;237;65574;-65
2023/03/14 04:13:40;;;;;;;;;;;;;;;23.22;43.96;96939.70;585516;237;48276;-65
2023/03/14 04:16:12;;;;;;;;;;;;;;;23.22;44.38;96933.54;598290;237;66820;-65
2023/03/14 04:18:39;;;;;;;;;;;;;;;23.21;44.12;96931.92;598252;237;65789;-65
2023/03/14 04:21:07;;;;;;;;;;;;;;;23.20;45.76;96930.34;598259;237;66764;-65
2023/03/14 04:23:36;;;;;;;;;;;;;;;23.20;48.43;96927.66;597990;237;44594;-65
2023/03/14 04:26:05;;;;;;;;;;;;;;;23.19;45.14;96926.87;598245;237;65776;-65
2023/03/14 04:28:33;;;;;;;;;;;;;;;23.18;44.73;96919.89;598262;237;67175;-65
2023/03/14 04:31:02;;;;;;;;;;;;;;;23.19;46.58;96920.68;598240;237;64427;-65
2023/03/14 04:33:30;;;;;;;;;;;;;;;23.17;44.53;96920.98;598226;237;65740;-65
2023/03/14 04:35:58;;;;;;;;;;;;;;;23.17;46.21;96923.67;598230;237;67028;-64
2023/03/14 04:38:25;;;;;;;;;;;;;;;23.16;46.05;96918.58;598299;237;66627;-65
2023/03/14 04:40:53;;;;;;;;;;;;;;;23.15;44.48;96923.15;598311;237;65678;-64
2023/03/14 04:43:23;;;;;;;;;;;;;;;23.16;46.33;96930.13;598305;237;45316;-64
2023/03/14 04:45:56;;;;;;;;;;;;;;;23.15;44.09;96933.08;598048;237;47428;-65
2023/03/14 04:48:24;;;;;;;;;;;;;;;23.15;46.19;96938.44;598300;237;63207;-65
2023/03/14 04:50:52;;;;;;;;;;;;;;;23.14;46.38;96934.17;598280;237;67631;-64
2023/03/14 04:53:20;;;;;;;;;;;;;;;23.12;44.49;96934.45;598309;237;66735;-65
2023/03/14 04:55:49;;;;;;;;;;;;;;;23.13;46.91;96938.72;598275;237;65932;-64
2023/03/14 04:58:18;;;;;;;;;;;;;;;23.11;44.90;96932.86;598341;237;65507;-64
2023/03/14 05:00:46;;;;;;;;;;;;;;;23.11;46.09;96938.22;598300;237;67337;-65
2023/03/14 05:03:21;;;;;;;;;;;;;;;23.11;47.69;96934.72;596108;237;45025;-65
2023/03/14 05:05:57;;;;;;;;;;;;;;;23.10;46.21;96936.61;597740;237;48457;-63
2023/03/14 05:08:40;;;;;;;;;;;;;;;23.10;45.69;96927.78;598388;237;48642;-64
2023/03/14 05:11:21;;;;;;;;;;;;;;;23.09;45.99;96928.87;597801;237;44302;-64
2023/03/14 05:14:02;;;;;;;;;;;;;;;23.08;45.28;96928.08;598038;237;45611;-64
2023/03/14 05:16:48;;;;;;;;;;;;;;;23.08;43.80;96925.40;598351;237;38791;-64
2023/03/14 05:19:17;;;;;;;;;;;;;;;23.07;45.02;96926.47;598113;237;47529;-59
2023/03/14 05:22:05;;;;;;;;;;;;;;;23.05;47.75;96917.91;597896;237;48863;-59
2023/03/14 05:24:37;;;;;;;;;;;;;;;23.06;46.76;96919.52;597935;236;46035;-60
2023/03/14 05:27:09;;;;;;;;;;;;;;;23.05;46.92;96917.91;594964;237;45346;-59
2023/03/14 05:29:39;;;;;;;;;;;;;;;23.05;45.80;96917.91;594472;237;48081;-59
2023/03/14 05:32:09;;;;;;;;;;;;;;;23.03;46.21;96915.53;597592;237;47703;-59
2023/03/14 05:34:58;;;;;;;;;;;;;;;23.03;44.99;96909.38;598422;237;37124;-59
2023/03/14 05:37:28;;;;;;;;;;;;;;;23.03;46.57;96920.09;597963;237;44950;-59
2023/03/14 05:40:14;;;;;;;;;;;;;;;23.02;46.46;96908.55;598297;237;38588;-59
2023/03/14 05:42:49;;;;;;;;;;;;;;;23.01;45.70;96912.33;597865;237;44937;-60
2023/03/14 05:45:21;;;;;;;;;;;;;;;23.01;45.91;96912.33;596599;237;47932;-60
2023/03/14 05:47:50;;;;;;;;;;;;;;;23.00;46.33;96910.74;590076;237;46222;-61
2023/03/14 05:50:25;;;;;;;;;;;;;;;23.01;47.02;96906.17;597776;237;43849;-65
2023/03/14 05:53:11;;;;;;;;;;;;;;;23.00;43.33;96905.38;598275;237;38600;-64
2023/03/14 05:55:43;;;;;;;;;;;;;;;23.01;43.36;96900.81;597936;237;45134;-64
2023/03/14 05:58:12;;;;;;;;;;;;;;;23.01;46.34;96903.50;596595;237;46418;-64
2023/03/14 06:00:49;;;;;;;;;;;;;;;23.00;46.37;96905.38;597435;237;49235;-64
2023/03/14 06:03:18;;;;;;;;;;;;;;;23.00;47.68;96907.27;598113;237;43209;-64
2023/03/14 06:05:48;;;;;;;;;;;;;;;22.99;44.71;96911.02;598176;237;63855;-64
2023/03/14 06:08:16;;;;;;;;;;;;;;;22.99;45.74;96905.66;598229;237;67647;-64
2023/03/14 06:10:43;;;;;;;;;;;;;;;22.98;44.30;96902.19;598216;237;66900;-64
2023/03/14 06:13:15;;;;;;;;;;;;;;;23.00;49.14;96907.27;598188;237;65096;-64
2023/03/14 06:15:43;;;;;;;;;;;;;;;22.99;45.89;96905.66;598146;237;66863;-64
2023/03/14 06:18:12;;;;;;;;;;;;;;;22.98;47.11;96902.19;598192;237;64641;-64
2023/03/14 06:20:42;;;;;;;;;;;;;;;22.97;45.38;96902.45;598258;237;63900;-64
2023/03/14 06:23:11;;;;;;;;;;;;;;;22.98;45.37;96904.07;598181;237;66974;-64
2023/03/14 06:25:38;;;;;;;;;;;;;;;22.97;47.35;96900.60;598209;237;66469;-64
2023/03/14 06:28:06;;;;;;;;;;;;;;;22.96;46.24;96896.30;598179;237;64757;-64
2023/03/14 06:30:35;;;;;;;;;;;;;;;22.97;47.30;96899.78;598244;237;43844;-65
2023/03/14 06:33:04;;;;;;;;;;;;;;;22.97;47.19;96894.41;598146;237;67611;-64
2023/03/14 06:35:33;;;;;;;;;;;;;;;22.97;49.14;96891.73;598125;237;62921;-63
2023/03/14 06:38:00;;;;;;;;;;;;;;;22.96;48.96;96893.63;598224;237;64447;-64
2023/03/14 06:40:28;;;;;;;;;;;;;;;22.96;45.88;96884.80;598304;237;67301;-65
2023/03/14 06:43:00;;;;;;;;;;;;;;;22.97;46.81;96883.70;591512;237;45002;-64
2023/03/14 06:45:29;;;;;;;;;;;;;;;22.96;46.22;96882.11;581743;243;67297;-66
2023/03/14 06:47:57;;;;;;;;;;;;;;;22.95;47.13;96873.25;582336;241;67061;-64
2023/03/14 06:50:28;;;;;;;;;;;;;;;22.94;44.50;96874.31;584923;240;43317;-64
2023/03/14 06:52:57;;;;;;;;;;;;;;;22.94;45.52;96871.64;590789;240;67287;-64
2023/03/14 06:55:26;;;;;;;;;;;;;;;22.93;45.14;96870.05;590855;240;66614;-64
2023/03/14 06:57:53;;;;;;;;;;;;;;;22.93;46.29;96858.55;590893;240;62550;-64
2023/03/14 07:00:21;;;;;;;;;;;;;;;22.92;48.13;96862.31;590909;240;67554;-63
2023/03/14 07:02:50;;;;;;;;;;;;;;;22.93;47.29;96848.61;590842;240;44414;-64
2023/03/14 07:05:26;;;;;;;;;;;;;;;22.93;46.40;96856.66;590659;240;45050;-64
2023/03/14 07:07:53;;;;;;;;;;;;;;;22.94;46.98;96844.05;590850;240;64421;-64
2023/03/14 07:10:21;;;;;;;;;;;;;;;22.94;48.15;96841.37;590927;240;66620;-65
2023/03/14 07:12:50;;;;;;;;;;;;;;;22.95;47.48;96843.77;590892;240;64501;-65
2023/03/14 07:15:18;;;;;;;;;;;;;;;22.94;47.50;96836.01;590856;240;67397;-64
2023/03/14 07:17:50;;;;;;;;;;;;;;;22.95;49.73;96832.27;590853;240;67633;-65
2023/03/14 07:20:19;;;;;;;;;;;;;;;22.95;46.73;96834.94;590880;240;62599;-65
2023/03/14 07:22:49;;;;;;;;;;;;;;;22.94;45.86;96831.44;590831;240;65726;-64
2023/03/14 07:25:19;;;;;;;;;;;;;;;22.95;49.50;96826.91;590825;240;43549;-63
2023/03/14 07:27:50;;;;;;;;;;;;;;;22.95;46.91;96829.58;590871;240;65218;-67
2023/03/14 07:30:19;;;;;;;;;;;;;;;22.96;48.19;96823.16;590898;240;64606;-64
2023/03/14 07:32:47;;;;;;;;;;;;;;;22.95;46.79;96825.02;583530;240;64706;-64
2023/03/14 07:35:15;;;;;;;;;;;;;;;22.95;49.84;96819.66;590854;237;65183;-62
2023/03/14 07:37:43;;;;;;;;;;;;;;;22.95;46.36;96821.55;591210;240;65574;-63
2023/03/14 07:40:14;;;;;;;;;;;;;;;22.96;48.18;96815.12;591229;240;67210;-64
2023/03/14 07:42:40;;;;;;;;;;;;;;;22.95;45.94;96816.98;591154;239;64997;-63
2023/03/14 07:45:12;;;;;;;;;;;;;;;22.96;47.95;96812.44;590929;240;45147;-65
2023/03/14 07:47:40;;;;;;;;;;;;;;;22.98;50.74;96820.99;591216;240;67332;-65
2023/03/14 07:50:08;;;;;;;;;;;;;;;22.97;48.18;96814.02;591175;240;65079;-65
2023/03/14 07:52:35;;;;;;;;;;;;;;;22.96;48.93;96807.08;591207;240;66983;-64
2023/03/14 07:55:03;;;;;;;;;;;;;;;22.97;49.71;96800.62;591240;240;66931;-64
2023/03/14 07:57:30;;;;;;;;;;;;;;;22.96;48.58;96797.15;591129;240;65054;-65
2023/03/14 07:59:58;;;;;;;;;;;;;;;22.96;47.94;96797.15;591181;240;64617;-64
2023/03/14 08:02:25;;;;;;;;;;;;;;;22.97;46.11;96798.77;591195;240;67096;-66
2023/03/14 08:04:53;;;;;;;;;;;;;;;22.99;47.68;96798.45;591178;240;64942;-64
2023/03/14 08:07:20;;;;;;;;;;;;;;;22.98;46.24;96791.52;591071;240;66945;-66
2023/03/14 08:09:48;;;;;;;;;;;;;;;22.98;46.18;96786.95;591217;240;67157;-65
2023/03/14 08:12:16;;;;;;;;;;;;;;;22.99;46.61;96785.06;591121;240;62703;-65
2023/03/14 08:14:43;;;;;;;;;;;;;;;22.98;40.52;96778.91;591099;240;67299;-65
2023/03/14 08:17:11;;;;;;;;;;;;;;;23.01;48.15;96783.69;591216;240;67066;-66
2023/03/14 08:19:38;;;;;;;;;;;;;;;23.02;47.51;96773.76;591171;240;66523;-65
2023/03/14 08:22:06;;;;;;;;;;;;;;;23.03;47.14;96781.52;591249;240;67967;-65
2023/03/14 08:24:34;;;;;;;;;;;;;;;23.03;44.92;96772.69;591223;240;67099;-66
2023/03/14 08:27:01;;;;;;;;;;;;;;;23.04;45.80;96772.38;591137;240;65089;-65
2023/03/14 08:29:29;;;;;;;;;;;;;;;23.05;46.99;96759.77;591210;240;65027;-65
2023/03/14 08:31:56;;;;;;;;;;;;;;;23.06;46.20;96757.91;591174;240;65047;-63
2023/03/14 08:34:23;;;;;;;;;;;;;;;23.08;47.15;96756.53;591267;240;65130;-65
2023/03/14 08:36:51;;;;;;;;;;;;;;;23.08;47.40;96758.39;589264;240;67279;-66
2023/03/14 08:39:18;;;;;;;;;;;;;;;23.07;40.70;96752.24;588613;241;64864;-69
2023/03/14 08:41:50;;;;;;;;;;;;;;;23.11;41.38;96744.41;588536;241;64919;-68
2023/03/14 08:44:18;;;;;;;;;;;;;;;23.15;45.23;96740.08;588512;241;67329;-64
2023/03/14 08:46:46;;;;;;;;;;;;;;;23.14;45.65;96739.28;588572;241;67151;-66
2023/03/14 08:49:14;;;;;;;;;;;;;;;23.16;46.19;96741.66;588639;241;65034;-66
2023/03/14 08:51:42;;;;;;;;;;;;;;;23.16;45.42;96733.61;588610;237;67244;-66
2023/03/14 08:54:12;;;;;;;;;;;;;;;23.17;44.00;96733.34;588650;241;64989;-64
2023/03/14 08:56:40;;;;;;;;;;;;;;;23.19;44.62;96728.48;588704;241;65222;-64
2023/03/14 08:59:08;;;;;;;;;;;;;;;23.18;45.13;96729.56;588706;241;67225;-65
2023/03/14 09:01:35;;;;;;;;;;;;;;;23.18;45.41;96724.20;588639;241;65421;-66
2023/03/14 09:04:03;;;;;;;;;;;;;;;23.19;38.06;96720.45;588641;241;62933;-64
2023/03/14 09:06:30;;;;;;;;;;;;;;;23.24;43.38;96716.87;588667;241;65021;-64
2023/03/14 09:08:58;;;;;;;;;;;;;;;23.25;45.78;96713.91;588612;237;65217;-64
2023/03/14 09:11:25;;;;;;;;;;;;;;;23.26;44.17;96715.48;588697;241;65013;-66
2023/03/14 09:13:53;;;;;;;;;;;;;;;23.27;45.06;96702.88;588724;241;67303;-67
2023/03/14 09:16:20;;;;;;;;;;;;;;;23.28;45.55;96704.48;588589;241;67030;-67
2023/03/14 09:18:48;;;;;;;;;;;;;;;23.30;45.01;96702.31;588629;241;65061;-68
2023/03/14 09:21:15;;;;;;;;;;;;;;;23.32;44.71;96702.00;588631;241;64808;-67
2023/03/14 09:23:45;;;;;;;;;;;;;;;23.34;45.52;96694.47;588541;241;65101;-67
2023/03/14 09:26:12;;;;;;;;;;;;;;;23.34;44.00;96691.79;588604;241;63863;-68
2023/03/14 09:28:39;;;;;;;;;;;;;;;23.35;46.44;96694.16;588539;241;67515;-65
2023/03/14 09:31:08;;;;;;;;;;;;;;;23.35;45.50;96685.33;588631;241;66973;-65
2023/03/14 09:33:36;;;;;;;;;;;;;;;23.37;48.16;96683.16;588637;241;62991;-66
2023/03/14 09:36:04;;;;;;;;;;;;;;;23.38;46.81;96679.38;589488;240;65027;-66
2023/03/14 09:38:32;;;;;;;;;;;;;;;23.38;45.25;96672.14;590991;240;67211;-66
2023/03/14 09:41:04;;;;;;;;;;;;;;;23.39;45.04;96667.58;591206;240;65010;-64
2023/03/14 09:43:33;;;;;;;;;;;;;;;23.41;43.65;96662.72;591127;240;65041;-64
2023/03/14 09:46:02;;;;;;;;;;;;;;;23.42;45.16;96666.98;591157;240;67051;-65
2023/03/14 09:48:31;;;;;;;;;;;;;;;23.42;43.76;96656.25;591193;240;62952;-68
2023/03/14 09:51:02;;;;;;;;;;;;;;;23.43;45.74;96655.16;591055;240;67228;-64
2023/03/14 09:53:34;;;;;;;;;;;;;;;23.44;44.72;96651.40;591237;237;64932;-72
2023/03/14 09:56:02;;;;;;;;;;;;;;;23.57;38.89;96645.27;590888;240;65172;-68
2023/03/14 09:58:31;;;;;;;;;;;;;;;23.58;42.94;96636.11;591056;240;44750;-65
2023/03/14 10:01:00;;;;;;;;;;;;;;;23.59;43.58;96631.54;591116;240;67096;-66
2023/03/14 10:03:29;;;;;;;;;;;;;;;23.60;43.89;96619.70;591155;240;62956;-66
2023/03/14 10:05:56;;;;;;;;;;;;;;;23.60;43.11;96623.20;591019;240;67229;-65
2023/03/14 10:08:24;;;;;;;;;;;;;;;23.63;43.18;96619.93;591169;240;64737;-65
2023/03/14 10:10:53;;;;;;;;;;;;;;;23.66;43.63;96613.17;591201;240;63020;-64
2023/03/14 10:13:24;;;;;;;;;;;;;;;23.67;43.73;96607.50;591134;240;67395;-65
2023/03/14 10:15:54;;;;;;;;;;;;;;;23.69;42.10;96597.27;591161;240;68166;-65
2023/03/14 10:18:23;;;;;;;;;;;;;;;23.70;43.72;96598.84;591179;240;63024;-65
2023/03/14 10:20:52;;;;;;;;;;;;;;;23.73;42.75;96594.02;591125;240;66901;-65
2023/03/14 10:23:21;;;;;;;;;;;;;;;23.74;43.00;96580.31;590648;240;67051;-65
2023/03/14 10:26:09;;;;;;;;;;;;;;;23.76;42.82;96577.31;591061;240;65149;-67
2023/03/14 10:28:50;;;;;;;;;;;;;;;23.79;41.71;96571.34;591197;240;67324;-66
2023/03/14 10:31:18;;;;;;;;;;;;;;;23.82;42.44;96566.20;591110;240;67032;-69
2023/03/14 10:33:48;;;;;;;;;;;;;;;23.83;41.96;96550.89;591195;240;65126;-66
2023/03/14 10:36:20;;;;;;;;;;;;;;;23.85;42.69;96551.39;588093;240;66966;-65
2023/03/14 10:38:47;;;;;;;;;;;;;;;23.86;42.18;96540.34;588756;241;67033;-66
2023/03/14 10:41:28;;;;;;;;;;;;;;;23.90;42.07;96543.23;588623;241;65224;-65
2023/03/14 10:43:57;;;;;;;;;;;;;;;23.91;42.96;96534.08;588152;241;67486;-65
2023/03/14 10:46:25;;;;;;;;;;;;;;;23.91;42.28;96526.81;587585;241;67401;-65
2023/03/14 10:49:12;;;;;;;;;;;;;;;23.92;42.63;96517.66;588379;241;40167;-65
2023/03/14 10:51:39;;;;;;;;;;;;;;;23.92;41.84;96522.23;588059;241;67112;-66
2023/03/14 10:54:14;;;;;;;;;;;;;;;23.96;42.52;96511.71;588754;241;64894;-65
2023/03/14 10:56:42;;;;;;;;;;;;;;;23.96;43.48;96504.45;588641;241;65411;-65
2023/03/14 10:59:14;;;;;;;;;;;;;;;23.97;43.08;96508.70;588350;241;64718;-65
2023/03/14 11:01:42;;;;;;;;;;;;;;;24.00;41.76;96500.05;588631;241;63646;-60
2023/03/14 11:04:18;;;;;;;;;;;;;;;24.02;42.92;96494.39;588642;241;63074;-60
2023/03/14 11:06:47;;;;;;;;;;;;;;;24.04;42.71;96486.84;588717;241;64770;-61
2023/03/14 11:09:15;;;;;;;;;;;;;;;24.05;41.59;96473.09;588524;241;64751;-61
2023/03/14 11:11:44;;;;;;;;;;;;;;;24.06;41.88;96466.65;588530;241;63843;-60
2023/03/14 11:14:16;;;;;;;;;;;;;;;24.07;42.93;96465.54;588743;241;66988;-61
2023/03/14 11:16:51;;;;;;;;;;;;;;;24.10;42.99;96464.14;588639;241;66646;-63
2023/03/14 11:19:30;;;;;;;;;;;;;;;24.10;42.43;96454.19;588602;239;62907;-60
2023/03/14 11:22:02;;;;;;;;;;;;;;;24.12;42.30;96449.32;575446;246;65495;-60
2023/03/14 11:24:36;;;;;;;;;;;;;;;24.14;42.60;96432.89;588400;241;64624;-60
2023/03/14 11:27:06;;;;;;;;;;;;;;;24.15;42.55;96423.75;588514;241;65046;-60
2023/03/14 11:29:38;;;;;;;;;;;;;;;24.15;42.25;96419.17;586512;241;67223;-60
2023/03/14 11:32:07;;;;;;;;;;;;;;;24.17;42.82;96407.33;588320;241;65291;-61
2023/03/14 11:34:36;;;;;;;;;;;;;;;24.18;42.76;96398.98;588563;241;62941;-62
2023/03/14 11:37:13;;;;;;;;;;;;;;;24.20;42.92;96394.11;590536;240;67260;-61
2023/03/14 11:39:43;;;;;;;;;;;;;;;24.20;41.72;96386.05;591061;240;65600;-61
2023/03/14 11:42:15;;;;;;;;;;;;;;;24.21;41.75;96384.16;591131;240;62972;-60
2023/03/14 11:44:44;;;;;;;;;;;;;;;24.21;42.11;96368.05;591134;240;65225;-60
2023/03/14 11:47:19;;;;;;;;;;;;;;;24.20;43.56;96372.63;591149;240;64954;-61
2023/03/14 11:49:48;;;;;;;;;;;;;;;24.24;42.29;96365.53;591138;240;63095;-61
2023/03/14 11:52:17;;;;;;;;;;;;;;;24.24;42.38;96362.05;591184;240;66977;-61
2023/03/14 11:54:49;;;;;;;;;;;;;;;24.25;42.00;96356.36;590749;240;67184;-60
2023/03/14 11:57:18;;;;;;;;;;;;;;;24.27;41.51;96353.38;590971;240;65166;-58
2023/03/14 11:59:48;;;;;;;;;;;;;;;24.28;42.79;96345.03;591113;240;65287;-59
2023/03/14 12:02:19;;;;;;;;;;;;;;;24.28;40.69;96330.79;591634;235;64862;-59
2023/03/14 12:05:04;;;;;;;;;;;;;;;24.27;42.09;96330.00;591129;239;62898;-59
2023/03/14 12:07:33;;;;;;;;;;;;;;;24.28;42.20;96331.61;591193;240;67038;-60
2023/03/14 12:10:02;;;;;;;;;;;;;;;24.30;41.00;96323.23;590732;240;64981;-60
2023/03/14 12:12:31;;;;;;;;;;;;;;;24.30;41.58;96315.17;591195;240;65070;-59
2023/03/14 12:15:02;;;;;;;;;;;;;;;24.32;40.91;96305.70;591218;240;67168;-58
2023/03/14 12:17:37;;;;;;;;;;;;;;;24.33;41.19;96301.12;591111;240;67541;-58
2023/03/14 12:20:18;;;;;;;;;;;;;;;24.33;41.90;96309.18;591156;240;63061;-59
2023/03/14 12:22:49;;;;;;;;;;;;;;;24.33;41.14;96293.06;591222;240;67353;-59
2023/03/14 12:25:18;;;;;;;;;;;;;;;24.35;42.38;96293.55;591184;240;64747;-60
2023/03/14 12:27:48;;;;;;;;;;;;;;;24.34;41.55;96294.67;591133;240;62389;-59
2023/03/14 12:30:22;;;;;;;;;;;;;;;24.34;41.32;96286.61;591153;240;66852;-59
2023/03/14 12:33:07;;;;;;;;;;;;;;;24.34;41.48;96286.61;587404;240;64929;-59
2023/03/14 12:35:40;;;;;;;;;;;;;;;24.35;41.44;96280.13;590562;240;63061;-59
2023/03/14 12:38:12;;;;;;;;;;;;;;;24.35;40.53;96274.77;588339;241;65175;-60
2023/03/14 12:40:41;;;;;;;;;;;;;;;24.36;41.10;96276.33;588687;241;66891;-60
2023/03/14 12:43:10;;;;;;;;;;;;;;;24.37;41.71;96277.94;587744;241;65076;-59
2023/03/14 12:45:38;;;;;;;;;;;;;;;24.36;41.07;96279.02;587820;241;67257;-59
2023/03/14 12:48:10;;;;;;;;;;;;;;;24.38;42.10;96271.45;588614;241;65327;-59
2023/03/14 12:50:45;;;;;;;;;;;;;;;24.38;41.82;96271.45;588679;241;63895;-62
2023/03/14 12:53:30;;;;;;;;;;;;;;;24.37;41.10;96267.98;588728;241;67015;-60
2023/03/14 12:56:03;;;;;;;;;;;;;;;24.38;41.28;96266.08;588570;241;67136;-58
2023/03/14 12:58:32;;;;;;;;;;;;;;;24.40;42.39;96263.09;588695;241;64972;-58
2023/03/14 13:01:02;;;;;;;;;;;;;;;24.39;41.19;96259.63;588594;241;65169;-58